Time;durP1;ratioP1;P1;durP2;ratioP2;P2;SDS_P1;SDS_P2;PMS_P1;PMS_P2;Temp;Humidity;BMP_temperature;BMP_pressure;BME280_temperature;BME280_humidity;BME280_pressure;Samples;Min_cycle;Max_cycle;Signal;HPM_P1;HPM_P2
2023/05/11 00:01:32;;;;;;;14.13;10.55;;;;;;;;;;5009247;28;20742;-76
2023/05/11 00:03:57;;;;;;;17.05;15.13;;;;;;;;;;4994275;28;20057;-77
2023/05/11 00:06:23;;;;;;;17.95;15.68;;;;;;;;;;4993813;28;20630;-78
2023/05/11 00:08:48;;;;;;;21.27;16.60;;;;;;;;;;4994148;28;20144;-78
2023/05/11 00:11:17;;;;;;;26.17;17.60;;;;;;;;;;4993003;28;20158;-76
2023/05/11 00:13:42;;;;;;;28.00;19.25;;;;;;;;;;4998039;28;20037;-75
2023/05/11 00:16:07;;;;;;;23.17;16.98;;;;;;;;;;5024190;28;20071;-75
2023/05/11 00:18:33;;;;;;;23.13;17.25;;;;;;;;;;4992627;28;20803;-77
2023/05/11 00:20:58;;;;;;;17.15;13.77;;;;;;;;;;4991563;28;20099;-77
2023/05/11 00:23:23;;;;;;;18.42;13.32;;;;;;;;;;4993459;28;20122;-75
2023/05/11 00:25:48;;;;;;;15.15;11.23;;;;;;;;;;5024978;28;20088;-76
2023/05/11 00:28:14;;;;;;;25.85;16.05;;;;;;;;;;4992710;28;20069;-77
2023/05/11 00:30:40;;;;;;;24.55;15.35;;;;;;;;;;4991169;28;20057;-77
2023/05/11 00:33:06;;;;;;;26.05;14.82;;;;;;;;;;5023949;28;20096;-79
2023/05/11 00:35:31;;;;;;;34.40;17.45;;;;;;;;;;4992648;28;20038;-75
2023/05/11 00:38:01;;;;;;;37.08;19.20;;;;;;;;;;4992271;28;20037;-76
2023/05/11 00:40:27;;;;;;;45.90;21.08;;;;;;;;;;5023581;28;20122;-76
2023/05/11 00:42:52;;;;;;;53.90;25.00;;;;;;;;;;4991515;28;20070;-76
2023/05/11 00:45:17;;;;;;;51.25;25.92;;;;;;;;;;5023362;28;20053;-77
2023/05/11 00:47:43;;;;;;;49.25;25.05;;;;;;;;;;4991771;28;20045;-77
2023/05/11 00:50:10;;;;;;;58.35;27.92;;;;;;;;;;5023425;28;20048;-74
2023/05/11 00:52:36;;;;;;;47.53;25.08;;;;;;;;;;5024059;28;20092;-77
2023/05/11 00:55:01;;;;;;;51.90;25.83;;;;;;;;;;5024061;28;20960;-76
2023/05/11 00:57:26;;;;;;;53.78;27.55;;;;;;;;;;5024598;28;20033;-77
2023/05/11 00:59:54;;;;;;;59.47;29.13;;;;;;;;;;4993759;28;20049;-76
2023/05/11 01:02:19;;;;;;;64.28;29.92;;;;;;;;;;4991299;28;20037;-77
2023/05/11 01:04:45;;;;;;;66.68;29.02;;;;;;;;;;5024574;28;20053;-77
2023/05/11 01:07:18;;;;;;;72.70;28.05;;;;;;;;;;4992111;28;20037;-77
2023/05/11 01:10:03;;;;;;;73.32;26.92;;;;;;;;;;4993056;28;20051;-75
2023/05/11 01:12:39;;;;;;;83.10;26.52;;;;;;;;;;4992469;28;20037;-77
2023/05/11 01:15:04;;;;;;;86.20;25.73;;;;;;;;;;4993319;28;20124;-77
2023/05/11 01:17:39;;;;;;;77.57;23.67;;;;;;;;;;4995762;28;20183;-79
2023/05/11 01:20:06;;;;;;;78.13;22.95;;;;;;;;;;5005652;28;20245;-78
2023/05/11 01:22:43;;;;;;;82.40;23.65;;;;;;;;;;4976944;28;20045;-75
2023/05/11 01:25:09;;;;;;;97.47;23.13;;;;;;;;;;4973122;28;20063;-76
2023/05/11 01:27:39;;;;;;;85.18;22.42;;;;;;;;;;5005276;28;21127;-77
2023/05/11 01:30:26;;;;;;;87.60;22.42;;;;;;;;;;4975449;28;20123;-78
2023/05/11 01:32:53;;;;;;;79.80;22.60;;;;;;;;;;5005669;28;20042;-77
2023/05/11 01:35:20;;;;;;;68.72;21.20;;;;;;;;;;4987467;28;20067;-77
2023/05/11 01:37:49;;;;;;;86.45;22.20;;;;;;;;;;4973486;28;20786;-78
2023/05/11 01:40:15;;;;;;;72.93;21.02;;;;;;;;;;4971974;28;20100;-76
2023/05/11 01:42:43;;;;;;;59.70;19.52;;;;;;;;;;4973609;28;20044;-74
2023/05/11 01:45:09;;;;;;;78.78;21.63;;;;;;;;;;4973703;28;20080;-76
2023/05/11 01:47:36;;;;;;;69.93;20.80;;;;;;;;;;4976504;28;20074;-75
2023/05/11 01:50:06;;;;;;;55.63;19.02;;;;;;;;;;4992396;28;20056;-77
2023/05/11 01:52:32;;;;;;;50.75;18.25;;;;;;;;;;4992495;28;20188;-77
2023/05/11 01:54:58;;;;;;;54.90;19.70;;;;;;;;;;5024337;28;20061;-77
2023/05/11 01:57:24;;;;;;;57.13;20.27;;;;;;;;;;4992345;28;20067;-76
2023/05/11 01:59:51;;;;;;;57.72;21.23;;;;;;;;;;4991440;28;20041;-77
2023/05/11 02:02:17;;;;;;;58.33;20.80;;;;;;;;;;4991712;28;20045;-77
2023/05/11 02:04:43;;;;;;;64.05;22.30;;;;;;;;;;5024011;28;20140;-73
2023/05/11 02:07:12;;;;;;;62.45;22.83;;;;;;;;;;5023645;28;20048;-77
2023/05/11 02:09:39;;;;;;;65.38;23.77;;;;;;;;;;5022908;28;20955;-77
2023/05/11 02:12:05;;;;;;;63.55;23.77;;;;;;;;;;5006772;28;20802;-78
2023/05/11 02:14:32;;;;;;;68.78;24.30;;;;;;;;;;4996006;28;20824;-79
2023/05/11 02:16:58;;;;;;;62.95;23.60;;;;;;;;;;4989970;28;20171;-77
2023/05/11 02:19:24;;;;;;;67.93;25.60;;;;;;;;;;4992731;28;20029;-78
2023/05/11 02:21:52;;;;;;;71.47;26.13;;;;;;;;;;4990536;28;20133;-77
2023/05/11 02:24:18;;;;;;;71.45;26.25;;;;;;;;;;5000461;28;20039;-77
2023/05/11 02:26:43;;;;;;;71.78;26.40;;;;;;;;;;4991086;28;20022;-77
2023/05/11 02:29:08;;;;;;;79.32;28.05;;;;;;;;;;4991953;28;20461;-77
2023/05/11 02:31:37;;;;;;;77.00;28.35;;;;;;;;;;5021042;28;20041;-76
2023/05/11 02:34:08;;;;;;;77.15;26.48;;;;;;;;;;4991308;28;20827;-76
2023/05/11 02:36:34;;;;;;;80.30;26.23;;;;;;;;;;4992151;28;20135;-76
2023/05/11 02:39:04;;;;;;;76.70;27.60;;;;;;;;;;4992020;28;20660;-77
2023/05/11 02:41:30;;;;;;;73.13;28.50;;;;;;;;;;4987192;28;20029;-78
2023/05/11 02:43:59;;;;;;;77.35;28.13;;;;;;;;;;4992061;28;20116;-77
2023/05/11 02:46:26;;;;;;;81.63;28.30;;;;;;;;;;4992195;28;20045;-78
2023/05/11 02:48:54;;;;;;;84.93;29.23;;;;;;;;;;4990782;28;20044;-77
2023/05/11 02:51:22;;;;;;;84.93;29.33;;;;;;;;;;5021945;28;20049;-76
2023/05/11 02:53:51;;;;;;;87.13;30.92;;;;;;;;;;5021711;28;20040;-76
2023/05/11 02:56:19;;;;;;;88.00;30.75;;;;;;;;;;4991732;28;20033;-77
2023/05/11 02:58:44;;;;;;;86.90;31.23;;;;;;;;;;4992382;28;20844;-77
2023/05/11 03:01:11;;;;;;;93.35;30.55;;;;;;;;;;4991882;28;20140;-78
2023/05/11 03:03:39;;;;;;;88.70;30.42;;;;;;;;;;5020899;28;20460;-78
2023/05/11 03:06:05;;;;;;;90.38;30.33;;;;;;;;;;4990840;28;20152;-77
2023/05/11 03:08:30;;;;;;;89.28;29.60;;;;;;;;;;5023607;28;20041;-77
2023/05/11 03:10:56;;;;;;;86.95;28.77;;;;;;;;;;4991981;28;20037;-76
2023/05/11 03:13:22;;;;;;;93.05;29.80;;;;;;;;;;4978761;28;20041;-77
2023/05/11 03:15:51;;;;;;;91.88;29.55;;;;;;;;;;4967761;28;20871;-77
2023/05/11 03:18:19;;;;;;;88.82;29.42;;;;;;;;;;4990594;28;20030;-77
2023/05/11 03:20:45;;;;;;;86.65;30.17;;;;;;;;;;4990855;28;22431;-77
2023/05/11 03:23:11;;;;;;;83.60;27.02;;;;;;;;;;4994128;28;20135;-78
2023/05/11 03:25:37;;;;;;;81.63;28.15;;;;;;;;;;4987056;28;20108;-77
2023/05/11 03:28:03;;;;;;;75.68;26.98;;;;;;;;;;5020655;28;20064;-77
2023/05/11 03:30:28;;;;;;;79.90;26.27;;;;;;;;;;4991846;28;20037;-78
2023/05/11 03:32:56;;;;;;;75.50;25.92;;;;;;;;;;4990237;28;20045;-77
2023/05/11 03:35:26;;;;;;;76.47;27.60;;;;;;;;;;4989748;28;20053;-76
2023/05/11 03:37:51;;;;;;;78.05;27.85;;;;;;;;;;4991360;28;20041;-76
2023/05/11 03:40:18;;;;;;;78.30;27.75;;;;;;;;;;5004763;28;20152;-77
2023/05/11 03:42:46;;;;;;;76.25;27.83;;;;;;;;;;4991988;28;20801;-77
2023/05/11 03:45:13;;;;;;;80.13;28.23;;;;;;;;;;4991092;28;20152;-76
2023/05/11 03:47:39;;;;;;;73.28;27.02;;;;;;;;;;4996665;28;20289;-77
2023/05/11 03:50:06;;;;;;;67.20;25.30;;;;;;;;;;4991192;28;20634;-77
2023/05/11 03:52:31;;;;;;;70.78;26.98;;;;;;;;;;4990453;28;20045;-77
2023/05/11 03:54:57;;;;;;;77.82;27.63;;;;;;;;;;5019923;28;20135;-77
2023/05/11 03:57:24;;;;;;;69.88;26.33;;;;;;;;;;5019329;28;20048;-77
2023/05/11 03:59:51;;;;;;;72.22;27.02;;;;;;;;;;5003731;28;20041;-75
2023/05/11 04:02:23;;;;;;;71.53;26.63;;;;;;;;;;5022261;28;20860;-76
2023/05/11 04:04:48;;;;;;;65.53;25.33;;;;;;;;;;5021494;28;20119;-76
2023/05/11 04:07:13;;;;;;;65.43;25.35;;;;;;;;;;4995554;28;20033;-77
2023/05/11 04:09:39;;;;;;;64.55;25.73;;;;;;;;;;4991878;28;20053;-76
2023/05/11 04:12:04;;;;;;;64.60;25.45;;;;;;;;;;4990723;28;20038;-77
2023/05/11 04:14:29;;;;;;;73.13;25.40;;;;;;;;;;4986569;28;20505;-77
2023/05/11 04:16:55;;;;;;;65.93;24.50;;;;;;;;;;4988152;28;20029;-77
2023/05/11 04:19:20;;;;;;;63.85;23.25;;;;;;;;;;4989919;28;20544;-77
2023/05/11 04:21:45;;;;;;;59.83;21.83;;;;;;;;;;5021890;28;20038;-77
2023/05/11 04:24:10;;;;;;;57.78;21.73;;;;;;;;;;4992870;28;20057;-76
2023/05/11 04:26:38;;;;;;;60.08;22.30;;;;;;;;;;5024073;28;20048;-77
2023/05/11 04:29:06;;;;;;;56.08;20.85;;;;;;;;;;4992997;28;21240;-76
2023/05/11 04:31:31;;;;;;;52.20;21.70;;;;;;;;;;5025594;28;20045;-77
2023/05/11 04:33:56;;;;;;;51.00;21.50;;;;;;;;;;4994945;28;20048;-78
2023/05/11 04:36:24;;;;;;;53.67;21.40;;;;;;;;;;4993127;28;21086;-78
2023/05/11 04:38:49;;;;;;;52.92;20.85;;;;;;;;;;4994418;28;20037;-76
2023/05/11 04:41:15;;;;;;;57.40;22.67;;;;;;;;;;4997261;28;20080;-75
2023/05/11 04:43:40;;;;;;;54.17;21.73;;;;;;;;;;5027298;28;20025;-76
2023/05/11 04:46:05;;;;;;;52.88;21.85;;;;;;;;;;4995337;28;20099;-76
2023/05/11 04:48:33;;;;;;;53.38;20.83;;;;;;;;;;4991320;28;20030;-78
2023/05/11 04:51:02;;;;;;;53.55;20.13;;;;;;;;;;4992022;28;20044;-74
2023/05/11 04:53:32;;;;;;;51.70;21.13;;;;;;;;;;4994277;28;20044;-74
2023/05/11 04:55:59;;;;;;;47.85;19.88;;;;;;;;;;4992236;28;20048;-72
2023/05/11 04:58:25;;;;;;;51.88;20.63;;;;;;;;;;4993335;28;20051;-74
2023/05/11 05:00:50;;;;;;;51.97;21.92;;;;;;;;;;4989927;28;20038;-74
2023/05/11 05:03:15;;;;;;;53.08;21.50;;;;;;;;;;4990240;28;20045;-73
2023/05/11 05:05:40;;;;;;;48.67;20.77;;;;;;;;;;4989249;28;20127;-73
2023/05/11 05:08:06;;;;;;;49.65;20.65;;;;;;;;;;5021246;28;20900;-74
2023/05/11 05:10:31;;;;;;;47.58;20.13;;;;;;;;;;4989520;28;20290;-73
2023/05/11 05:12:59;;;;;;;52.13;21.60;;;;;;;;;;4988936;28;20038;-73
2023/05/11 05:15:24;;;;;;;52.85;23.10;;;;;;;;;;5021409;28;20037;-74
2023/05/11 05:17:50;;;;;;;58.05;22.00;;;;;;;;;;5021052;28;20043;-74
2023/05/11 05:20:17;;;;;;;49.58;21.38;;;;;;;;;;4990521;28;20423;-74
2023/05/11 05:22:42;;;;;;;50.28;21.08;;;;;;;;;;5018429;28;20044;-74
2023/05/11 05:25:10;;;;;;;43.65;20.02;;;;;;;;;;4988207;28;20049;-74
2023/05/11 05:27:36;;;;;;;44.17;19.35;;;;;;;;;;5018607;28;20574;-73
2023/05/11 05:30:01;;;;;;;47.00;19.88;;;;;;;;;;4992320;28;20037;-74
2023/05/11 05:32:28;;;;;;;59.60;22.30;;;;;;;;;;5019903;28;20107;-75
2023/05/11 05:34:54;;;;;;;48.72;22.33;;;;;;;;;;4989943;28;20151;-74
2023/05/11 05:37:21;;;;;;;43.72;20.85;;;;;;;;;;4987256;28;20672;-73
2023/05/11 05:39:47;;;;;;;43.45;19.13;;;;;;;;;;5020548;28;20040;-75
2023/05/11 05:42:12;;;;;;;42.88;20.52;;;;;;;;;;4991023;28;20122;-73
2023/05/11 05:44:40;;;;;;;41.90;20.38;;;;;;;;;;4989090;28;20046;-72
2023/05/11 05:47:05;;;;;;;44.65;20.75;;;;;;;;;;4990050;28;20041;-74
2023/05/11 05:49:30;;;;;;;56.25;19.23;;;;;;;;;;5019885;28;20025;-74
2023/05/11 05:51:55;;;;;;;55.92;21.08;;;;;;;;;;4989386;28;20048;-74
2023/05/11 05:54:21;;;;;;;41.90;20.98;;;;;;;;;;4989127;28;20029;-75
2023/05/11 05:56:47;;;;;;;44.13;19.90;;;;;;;;;;4991315;28;20079;-75
2023/05/11 05:59:13;;;;;;;38.47;18.38;;;;;;;;;;4989975;28;20091;-74
2023/05/11 06:01:44;;;;;;;47.35;21.92;;;;;;;;;;4987892;28;20041;-73
2023/05/11 06:04:11;;;;;;;39.53;19.00;;;;;;;;;;4986673;28;20037;-73
2023/05/11 06:06:39;;;;;;;42.65;18.75;;;;;;;;;;5019361;28;20413;-75
2023/05/11 06:09:04;;;;;;;41.83;19.52;;;;;;;;;;4984997;28;20033;-74
2023/05/11 06:11:29;;;;;;;77.15;21.33;;;;;;;;;;4990130;28;20065;-74
2023/05/11 06:13:57;;;;;;;42.75;20.35;;;;;;;;;;5019006;28;20061;-74
2023/05/11 06:16:25;;;;;;;40.15;20.05;;;;;;;;;;4986380;28;20041;-74
2023/05/11 06:18:51;;;;;;;45.20;19.92;;;;;;;;;;4986248;28;20842;-75
2023/05/11 06:21:18;;;;;;;41.30;19.75;;;;;;;;;;4985767;28;20038;-75
2023/05/11 06:23:43;;;;;;;40.95;20.33;;;;;;;;;;4984868;28;20033;-75
2023/05/11 06:26:09;;;;;;;39.92;19.70;;;;;;;;;;4987362;28;20313;-74
2023/05/11 06:28:34;;;;;;;43.72;20.35;;;;;;;;;;4987469;28;20038;-74
2023/05/11 06:30:59;;;;;;;42.97;19.75;;;;;;;;;;4985064;28;20042;-74
2023/05/11 06:33:27;;;;;;;36.08;18.58;;;;;;;;;;4985649;28;20041;-74
2023/05/11 06:35:55;;;;;;;36.38;19.27;;;;;;;;;;4986246;28;20036;-74
2023/05/11 06:38:20;;;;;;;40.70;20.20;;;;;;;;;;4986154;28;20041;-73
2023/05/11 06:40:45;;;;;;;38.53;20.15;;;;;;;;;;4987972;28;20455;-74
2023/05/11 06:43:10;;;;;;;39.47;19.92;;;;;;;;;;4986755;28;20041;-72
2023/05/11 06:45:36;;;;;;;45.28;21.92;;;;;;;;;;4994180;28;20037;-76
2023/05/11 06:48:02;;;;;;;42.17;20.98;;;;;;;;;;4986085;28;20564;-75
2023/05/11 06:50:27;;;;;;;34.63;19.95;;;;;;;;;;4985014;28;20038;-73
2023/05/11 06:52:53;;;;;;;32.85;17.55;;;;;;;;;;4986905;28;20083;-74
2023/05/11 06:55:18;;;;;;;29.58;16.92;;;;;;;;;;4986333;28;21751;-74
2023/05/11 06:57:43;;;;;;;30.17;17.02;;;;;;;;;;4986860;28;20223;-74
2023/05/11 07:00:11;;;;;;;31.20;15.18;;;;;;;;;;5016924;28;20500;-73
2023/05/11 07:02:39;;;;;;;28.52;16.30;;;;;;;;;;4987332;28;20033;-75
2023/05/11 07:05:04;;;;;;;24.20;14.80;;;;;;;;;;4982474;28;20049;-75
2023/05/11 07:07:30;;;;;;;22.67;14.10;;;;;;;;;;4986542;28;20409;-74
2023/05/11 07:09:55;;;;;;;24.42;15.55;;;;;;;;;;5016651;28;21815;-74
2023/05/11 07:12:21;;;;;;;26.85;15.90;;;;;;;;;;4987673;28;20037;-74
2023/05/11 07:14:49;;;;;;;36.03;16.10;;;;;;;;;;4986098;28;20195;-75
2023/05/11 07:17:14;;;;;;;27.63;14.70;;;;;;;;;;4983947;28;20130;-72
2023/05/11 07:19:40;;;;;;;27.20;14.25;;;;;;;;;;4986465;28;20045;-74
2023/05/11 07:22:05;;;;;;;21.95;14.25;;;;;;;;;;5007324;28;20072;-74
2023/05/11 07:24:31;;;;;;;23.65;15.02;;;;;;;;;;4986286;28;20894;-74
2023/05/11 07:27:01;;;;;;;26.20;14.50;;;;;;;;;;4985396;28;20282;-74
2023/05/11 07:29:26;;;;;;;20.17;12.20;;;;;;;;;;4985926;28;20080;-73
2023/05/11 07:31:51;;;;;;;24.33;13.52;;;;;;;;;;4989443;28;20033;-74
2023/05/11 07:34:17;;;;;;;20.92;12.73;;;;;;;;;;4994811;28;20120;-78
2023/05/11 07:36:42;;;;;;;21.00;12.65;;;;;;;;;;4993709;28;21776;-69
2023/05/11 07:39:07;;;;;;;16.92;11.73;;;;;;;;;;5015792;28;20557;-69
2023/05/11 07:41:33;;;;;;;16.75;12.27;;;;;;;;;;4988991;28;20054;-69
2023/05/11 07:43:59;;;;;;;15.63;10.77;;;;;;;;;;4984144;28;20777;-69
2023/05/11 07:46:24;;;;;;;16.65;10.13;;;;;;;;;;4983612;28;20254;-69
2023/05/11 07:48:49;;;;;;;12.70;9.02;;;;;;;;;;4985120;28;20115;-69
2023/05/11 07:51:15;;;;;;;15.10;9.65;;;;;;;;;;4983053;28;20147;-69
2023/05/11 07:53:40;;;;;;;12.88;9.80;;;;;;;;;;4983784;28;20552;-69
2023/05/11 07:56:05;;;;;;;16.05;12.18;;;;;;;;;;4985408;28;20044;-69
2023/05/11 07:58:31;;;;;;;19.35;13.35;;;;;;;;;;5021528;28;20047;-70
2023/05/11 08:00:57;;;;;;;28.50;12.57;;;;;;;;;;4991349;28;21822;-70
2023/05/11 08:03:22;;;;;;;22.48;12.93;;;;;;;;;;4991522;28;20065;-69
2023/05/11 08:05:50;;;;;;;54.95;12.70;;;;;;;;;;4999786;28;20099;-74
2023/05/11 08:08:15;;;;;;;21.13;12.85;;;;;;;;;;4985482;28;20807;-74
2023/05/11 08:10:40;;;;;;;19.08;13.02;;;;;;;;;;5004554;28;20049;-75
2023/05/11 08:13:06;;;;;;;16.90;12.35;;;;;;;;;;4998956;28;20760;-75
2023/05/11 08:15:32;;;;;;;47.10;14.35;;;;;;;;;;4997529;28;20041;-75
2023/05/11 08:17:58;;;;;;;19.25;11.98;;;;;;;;;;4997355;28;20111;-75
2023/05/11 08:20:23;;;;;;;23.95;12.05;;;;;;;;;;4995899;28;20844;-75
2023/05/11 08:22:48;;;;;;;21.33;12.65;;;;;;;;;;5003618;28;20086;-74
2023/05/11 08:25:16;;;;;;;32.25;12.48;;;;;;;;;;5027175;28;20152;-73
2023/05/11 08:27:44;;;;;;;23.15;12.23;;;;;;;;;;4996216;28;20047;-74
2023/05/11 08:30:09;;;;;;;28.10;14.20;;;;;;;;;;5015615;28;20898;-74
2023/05/11 08:32:38;;;;;;;58.83;16.65;;;;;;;;;;4993332;28;20044;-73
2023/05/11 08:35:04;;;;;;;57.08;17.33;;;;;;;;;;4993801;28;20095;-74
2023/05/11 08:37:29;;;;;;;79.28;21.17;;;;;;;;;;5011321;28;20116;-76
2023/05/11 08:39:55;;;;;;;33.55;13.85;;;;;;;;;;5031600;28;20039;-75
2023/05/11 08:42:22;;;;;;;32.25;14.18;;;;;;;;;;4993247;28;20528;-75
2023/05/11 08:44:48;;;;;;;19.42;12.55;;;;;;;;;;5026696;28;20635;-74
2023/05/11 08:47:14;;;;;;;20.52;11.27;;;;;;;;;;5014007;28;20033;-75
2023/05/11 08:49:39;;;;;;;40.80;12.20;;;;;;;;;;5031831;28;20036;-74
2023/05/11 08:52:05;;;;;;;26.70;12.43;;;;;;;;;;4995862;28;20810;-76
2023/05/11 08:54:30;;;;;;;25.35;12.27;;;;;;;;;;4991605;28;20530;-74
2023/05/11 08:56:58;;;;;;;47.00;13.30;;;;;;;;;;4993229;28;20037;-73
2023/05/11 08:59:26;;;;;;;45.42;13.63;;;;;;;;;;4993547;28;20041;-75
2023/05/11 09:01:51;;;;;;;52.22;13.90;;;;;;;;;;4992517;28;20034;-72
2023/05/11 09:04:17;;;;;;;23.05;12.23;;;;;;;;;;4995927;28;20110;-74
2023/05/11 09:06:43;;;;;;;39.25;12.98;;;;;;;;;;4991805;28;20053;-72
2023/05/11 09:09:08;;;;;;;19.30;12.27;;;;;;;;;;4994040;28;20231;-76
2023/05/11 09:11:34;;;;;;;32.92;13.23;;;;;;;;;;5000832;28;20037;-74
2023/05/11 09:13:59;;;;;;;24.88;13.80;;;;;;;;;;4993448;28;20053;-76
2023/05/11 09:16:25;;;;;;;27.05;14.90;;;;;;;;;;4993662;28;20053;-76
2023/05/11 09:18:51;;;;;;;27.65;16.30;;;;;;;;;;4998080;28;20045;-76
2023/05/11 09:21:17;;;;;;;36.75;16.70;;;;;;;;;;4983467;28;20041;-78
2023/05/11 09:23:42;;;;;;;40.03;16.15;;;;;;;;;;4992000;28;20060;-78
2023/05/11 09:26:31;;;;;;;78.47;19.98;;;;;;;;;;5022607;28;20188;-77
2023/05/11 09:28:57;;;;;;;39.53;15.90;;;;;;;;;;4995034;28;20045;-76
2023/05/11 09:31:44;;;;;;;43.50;15.55;;;;;;;;;;4987470;28;20029;-75
2023/05/11 09:34:09;;;;;;;310.30;39.00;;;;;;;;;;5006104;28;20040;-75
2023/05/11 09:36:37;;;;;;;68.35;19.55;;;;;;;;;;4992496;28;20120;-76
2023/05/11 09:39:03;;;;;;;46.35;17.15;;;;;;;;;;5026275;28;20038;-76
2023/05/11 09:41:30;;;;;;;33.80;14.80;;;;;;;;;;4992296;28;20048;-75
2023/05/11 09:44:12;;;;;;;30.02;15.63;;;;;;;;;;4991266;28;20729;-74
2023/05/11 09:46:38;;;;;;;;;;;;;;;;;;4986368;28;20057;-73
2023/05/11 09:49:03;;;;;;;27.05;15.27;;;;;;;;;;5016706;28;19960;-73
2023/05/11 09:51:32;;;;;;;24.30;14.55;;;;;;;;;;4995702;28;20112;-76
2023/05/11 09:53:58;;;;;;;20.80;14.13;;;;;;;;;;4984772;28;20042;-75
2023/05/11 09:56:45;;;;;;;21.23;14.13;;;;;;;;;;4976324;28;20030;-77
2023/05/11 09:59:11;;;;;;;20.20;14.38;;;;;;;;;;4976057;28;21014;-77
2023/05/11 10:01:37;;;;;;;18.05;13.07;;;;;;;;;;4972820;28;20037;-74
2023/05/11 10:04:02;;;;;;;18.67;13.00;;;;;;;;;;4981138;28;20493;-77
2023/05/11 10:06:41;;;;;;;18.88;13.55;;;;;;;;;;4972839;28;21099;-77
2023/05/11 10:09:09;;;;;;;17.42;12.20;;;;;;;;;;5004926;28;20072;-76
2023/05/11 10:11:41;;;;;;;23.23;12.85;;;;;;;;;;4978273;28;20795;-72
2023/05/11 10:14:11;;;;;;;26.35;12.27;;;;;;;;;;4991662;28;20038;-73
2023/05/11 10:16:36;;;;;;;44.45;15.05;;;;;;;;;;4981152;28;20133;-73
2023/05/11 10:19:04;;;;;;;64.40;16.42;;;;;;;;;;5011066;28;20034;-74
2023/05/11 10:21:33;;;;;;;75.22;16.98;;;;;;;;;;4980283;28;20045;-72
2023/05/11 10:23:59;;;;;;;42.72;11.38;;;;;;;;;;4975010;28;20042;-71
2023/05/11 10:26:25;;;;;;;31.35;9.32;;;;;;;;;;4970360;28;20042;-72
2023/05/11 10:28:53;;;;;;;25.63;7.47;;;;;;;;;;5002466;28;20069;-66
2023/05/11 10:31:22;;;;;;;20.20;6.93;;;;;;;;;;4972529;28;20049;-68
2023/05/11 10:33:50;;;;;;;14.93;6.95;;;;;;;;;;4986076;28;20037;-66
2023/05/11 10:36:16;;;;;;;13.40;7.55;;;;;;;;;;4971594;28;20923;-67
2023/05/11 10:38:41;;;;;;;9.00;4.80;;;;;;;;;;4973879;28;20101;-67
2023/05/11 10:41:14;;;;;;;10.70;4.78;;;;;;;;;;4953228;28;20066;-67
2023/05/11 10:43:47;;;;;;;9.15;3.50;;;;;;;;;;4969417;28;20128;-67
2023/05/11 10:46:25;;;;;;;9.60;2.97;;;;;;;;;;4972145;28;20049;-68
2023/05/11 10:48:50;;;;;;;6.45;3.53;;;;;;;;;;5001479;28;20079;-66
2023/05/11 10:51:15;;;;;;;9.55;3.83;;;;;;;;;;4972008;28;20042;-67
2023/05/11 10:53:56;;;;;;;10.48;4.53;;;;;;;;;;4970736;28;20033;-66
2023/05/11 10:56:39;;;;;;;13.05;4.68;;;;;;;;;;4970085;28;20686;-68
2023/05/11 10:59:05;;;;;;;8.55;4.35;;;;;;;;;;4971589;28;20034;-66
2023/05/11 11:01:36;;;;;;;8.23;4.32;;;;;;;;;;4978341;28;20155;-73
2023/05/11 11:04:04;;;;;;;11.40;4.72;;;;;;;;;;5017352;28;20038;-72
2023/05/11 11:06:32;;;;;;;11.20;4.97;;;;;;;;;;4988402;28;20120;-71
2023/05/11 11:08:58;;;;;;;9.43;4.60;;;;;;;;;;4983573;28;20034;-73
2023/05/11 11:11:31;;;;;;;6.72;3.17;;;;;;;;;;4983715;28;20058;-72
2023/05/11 11:14:01;;;;;;;6.50;3.28;;;;;;;;;;5001895;28;20052;-76
2023/05/11 11:16:29;;;;;;;7.38;3.75;;;;;;;;;;4980591;28;20034;-76
2023/05/11 11:19:13;;;;;;;5.65;3.10;;;;;;;;;;4973131;28;20033;-73
2023/05/11 11:21:41;;;;;;;7.60;3.40;;;;;;;;;;5000648;28;21122;-73
2023/05/11 11:24:06;;;;;;;8.63;3.90;;;;;;;;;;4983649;28;20041;-74
2023/05/11 11:26:48;;;;;;;7.82;4.10;;;;;;;;;;4969129;28;20203;-74
2023/05/11 11:29:14;;;;;;;8.80;4.20;;;;;;;;;;4973260;28;20108;-72
2023/05/11 11:31:39;;;;;;;11.73;5.28;;;;;;;;;;4978844;28;20589;-74
2023/05/11 11:34:23;;;;;;;10.23;5.45;;;;;;;;;;5007552;28;20049;-73
2023/05/11 11:36:59;;;;;;;8.50;4.90;;;;;;;;;;5021784;28;20553;-73
2023/05/11 11:39:25;;;;;;;7.15;4.55;;;;;;;;;;5023743;28;20040;-73
2023/05/11 11:42:00;;;;;;;8.30;4.80;;;;;;;;;;5020097;28;20397;-73
2023/05/11 11:44:25;;;;;;;12.10;5.22;;;;;;;;;;5021079;28;20125;-73
2023/05/11 11:47:08;;;;;;;11.93;5.72;;;;;;;;;;5053861;28;20106;-72
2023/05/11 11:49:34;;;;;;;19.27;7.70;;;;;;;;;;5020291;28;20194;-74
2023/05/11 11:52:00;;;;;;;23.77;10.07;;;;;;;;;;5022805;28;21015;-73
2023/05/11 11:54:52;;;;;;;19.65;10.13;;;;;;;;;;5037277;28;20546;-73
2023/05/11 11:57:36;;;;;;;16.20;10.55;;;;;;;;;;5017606;28;20044;-76
2023/05/11 12:00:04;;;;;;;17.67;11.77;;;;;;;;;;5025717;28;20036;-74
2023/05/11 12:02:30;;;;;;;35.30;15.23;;;;;;;;;;5012004;28;20078;-71
2023/05/11 12:05:07;;;;;;;34.05;14.77;;;;;;;;;;5012941;28;20029;-71
2023/05/11 12:07:35;;;;;;;23.83;13.82;;;;;;;;;;5007561;28;20033;-70
2023/05/11 12:10:03;;;;;;;25.38;13.95;;;;;;;;;;5009902;28;20030;-72
2023/05/11 12:12:31;;;;;;;24.42;14.02;;;;;;;;;;5010633;28;20053;-70
2023/05/11 12:14:58;;;;;;;31.88;13.32;;;;;;;;;;5020731;28;20034;-69
2023/05/11 12:17:26;;;;;;;25.88;12.40;;;;;;;;;;5011845;28;20466;-65
2023/05/11 12:19:52;;;;;;;36.35;10.43;;;;;;;;;;5024180;28;20075;-65
2023/05/11 12:22:21;;;;;;;17.17;8.30;;;;;;;;;;5026715;28;20025;-64
2023/05/11 12:24:46;;;;;;;20.30;7.97;;;;;;;;;;5011375;28;22429;-64
2023/05/11 12:27:11;;;;;;;16.85;8.23;;;;;;;;;;5008958;28;20042;-64
2023/05/11 12:29:37;;;;;;;22.92;10.05;;;;;;;;;;5040252;28;20059;-64
2023/05/11 12:32:02;;;;;;;24.95;11.00;;;;;;;;;;5009347;28;20044;-65
2023/05/11 12:34:30;;;;;;;26.00;12.00;;;;;;;;;;5039192;28;20033;-65
2023/05/11 12:36:59;;;;;;;23.63;13.82;;;;;;;;;;5008250;28;20531;-64
2023/05/11 12:39:25;;;;;;;31.02;13.40;;;;;;;;;;5009459;28;20188;-64
2023/05/11 12:41:51;;;;;;;25.48;13.50;;;;;;;;;;5005372;28;20913;-65
2023/05/11 12:44:17;;;;;;;28.27;13.63;;;;;;;;;;4988720;28;20560;-65
2023/05/11 12:46:44;;;;;;;32.80;15.30;;;;;;;;;;4990493;28;20069;-65
2023/05/11 12:49:12;;;;;;;28.92;14.07;;;;;;;;;;4988679;28;20042;-66
2023/05/11 12:51:45;;;;;;;35.35;14.40;;;;;;;;;;4987215;28;20041;-64
2023/05/11 12:54:25;;;;;;;23.15;13.68;;;;;;;;;;5021907;28;20046;-64
2023/05/11 12:56:50;;;;;;;22.88;14.20;;;;;;;;;;5021849;28;20042;-65
2023/05/11 12:59:22;;;;;;;20.50;13.75;;;;;;;;;;5005998;28;20112;-65
2023/05/11 13:01:47;;;;;;;22.02;14.45;;;;;;;;;;4988365;28;20629;-65
2023/05/11 13:04:15;;;;;;;23.30;13.80;;;;;;;;;;5022063;28;20057;-65
2023/05/11 13:06:43;;;;;;;24.00;14.57;;;;;;;;;;4994583;28;22327;-65
2023/05/11 13:09:08;;;;;;;24.65;13.73;;;;;;;;;;4990630;28;20053;-65
2023/05/11 13:11:36;;;;;;;25.10;13.52;;;;;;;;;;4988776;28;20124;-66
2023/05/11 13:14:14;;;;;;;23.38;13.82;;;;;;;;;;4989943;28;20115;-66
2023/05/11 13:16:39;;;;;;;21.45;13.05;;;;;;;;;;4990196;28;20112;-65
2023/05/11 13:19:07;;;;;;;22.45;13.13;;;;;;;;;;4988244;28;20072;-65
2023/05/11 13:21:33;;;;;;;22.20;12.93;;;;;;;;;;4993543;28;20044;-65
2023/05/11 13:23:58;;;;;;;21.80;12.90;;;;;;;;;;4987136;28;20038;-65
2023/05/11 13:26:25;;;;;;;20.58;12.60;;;;;;;;;;5006785;28;21937;-66
2023/05/11 13:28:50;;;;;;;22.25;13.38;;;;;;;;;;5007538;28;20048;-66
2023/05/11 13:31:18;;;;;;;19.85;12.23;;;;;;;;;;5036736;28;20402;-66
2023/05/11 13:33:49;;;;;;;20.60;12.25;;;;;;;;;;5004056;28;21155;-65
2023/05/11 13:36:14;;;;;;;23.00;12.85;;;;;;;;;;5037392;28;20125;-65
2023/05/11 13:38:39;;;;;;;16.90;11.43;;;;;;;;;;5004748;28;20026;-66
2023/05/11 13:41:06;;;;;;;22.23;12.98;;;;;;;;;;5006370;28;20047;-64
2023/05/11 13:43:31;;;;;;;11.60;7.53;;;;;;;;;;5004403;28;20522;-65
2023/05/11 13:45:56;;;;;;;7.72;4.57;;;;;;;;;;5021084;28;20073;-65
2023/05/11 13:48:21;;;;;;;9.70;5.65;;;;;;;;;;5008305;28;20034;-65
2023/05/11 13:50:47;;;;;;;17.05;10.30;;;;;;;;;;5007306;28;20047;-65
2023/05/11 13:53:15;;;;;;;17.08;11.35;;;;;;;;;;5005453;28;20482;-64
2023/05/11 13:55:41;;;;;;;18.95;11.80;;;;;;;;;;5004330;28;20068;-64
2023/05/11 13:58:07;;;;;;;16.58;11.23;;;;;;;;;;5005242;28;20037;-64
2023/05/11 14:00:33;;;;;;;20.77;11.65;;;;;;;;;;5034761;28;20291;-64
2023/05/11 14:02:59;;;;;;;18.77;12.35;;;;;;;;;;5004671;28;20533;-65
2023/05/11 14:05:26;;;;;;;19.25;12.43;;;;;;;;;;5005630;28;20060;-65
2023/05/11 14:07:52;;;;;;;18.45;11.60;;;;;;;;;;5005378;28;22818;-64
2023/05/11 14:10:17;;;;;;;17.17;11.95;;;;;;;;;;4993982;28;20041;-65
2023/05/11 14:12:43;;;;;;;16.52;11.85;;;;;;;;;;5005184;28;20037;-65
2023/05/11 14:15:11;;;;;;;16.50;11.48;;;;;;;;;;5037188;28;20029;-66
2023/05/11 14:17:36;;;;;;;18.08;11.55;;;;;;;;;;5004488;28;20057;-65
2023/05/11 14:20:04;;;;;;;13.10;9.98;;;;;;;;;;5005890;28;20033;-65